createdAt,value
2017-06-02T00:00:00.055Z,11.15
2017-06-02T00:01:12.279Z,11.12
2017-06-02T00:02:24.799Z,11.08
2017-06-02T00:03:37.338Z,11.13
2017-06-02T00:04:49.880Z,11.04
2017-06-02T00:06:01.810Z,11.07
2017-06-02T00:07:14.047Z,11.01
2017-06-02T00:08:26.568Z,11.04
2017-06-02T00:09:39.118Z,11.04
2017-06-02T00:10:51.634Z,10.98
2017-06-02T00:12:04.184Z,11
2017-06-02T00:13:16.675Z,11.04
2017-06-02T00:14:28.298Z,10.94
2017-06-02T00:15:40.519Z,11.01
2017-06-02T00:16:53.065Z,11
2017-06-02T00:18:05.614Z,10.92
2017-06-02T00:19:17.260Z,10.97
2017-06-02T00:20:29.485Z,10.94
2017-06-02T00:21:42.006Z,10.97
2017-06-02T00:22:54.227Z,10.86
2017-06-02T00:24:06.452Z,10.8
2017-06-02T00:25:18.691Z,10.84
2017-06-02T00:26:31.243Z,10.9
2017-06-02T00:27:43.766Z,10.87
2017-06-02T00:28:55.981Z,10.9
2017-06-02T00:30:08.233Z,10.92
2017-06-02T00:31:20.469Z,10.86
2017-06-02T00:32:33.244Z,10.83
2017-06-02T00:33:45.786Z,10.76
2017-06-02T00:34:58.029Z,10.79
2017-06-02T00:36:10.586Z,10.72
2017-06-02T00:37:22.835Z,10.67
2017-06-02T00:38:35.048Z,10.62
2017-06-02T00:39:47.263Z,10.69
2017-06-02T00:40:59.819Z,10.67
2017-06-02T00:42:12.053Z,10.67
2017-06-02T00:43:24.557Z,10.65
2017-06-02T00:44:37.071Z,10.61
2017-06-02T00:45:49.629Z,10.61
2017-06-02T00:47:02.146Z,10.53
2017-06-02T00:48:14.062Z,10.55
2017-06-02T00:49:26.586Z,10.46
2017-06-02T00:50:38.833Z,10.45
2017-06-02T00:51:50.738Z,10.45
2017-06-02T00:53:03.292Z,10.41
2017-06-02T00:54:15.837Z,10.49
2017-06-02T00:55:27.766Z,10.33
2017-06-02T00:56:40.316Z,10.38
2017-06-02T00:57:52.861Z,10.33
2017-06-02T00:59:05.381Z,10.38
2017-06-02T01:00:17.305Z,10.39
2017-06-02T01:01:29.845Z,10.41
2017-06-02T01:02:42.386Z,10.39
2017-06-02T01:03:54.030Z,10.38
2017-06-02T01:05:06.808Z,10.28
2017-06-02T01:06:18.705Z,10.24
2017-06-02T01:07:31.222Z,10.31
2017-06-02T01:08:43.772Z,10.25
2017-06-02T01:09:56.317Z,10.25
2017-06-02T01:11:07.958Z,10.33
2017-06-02T01:12:19.884Z,10.27
2017-06-02T01:13:31.826Z,10.21
2017-06-02T01:14:44.348Z,10.18
2017-06-02T01:15:56.875Z,10.18
2017-06-02T01:17:08.495Z,10.27
2017-06-02T01:18:20.431Z,10.13
2017-06-02T01:19:32.664Z,10.12
2017-06-02T01:20:45.209Z,10.12
2017-06-02T01:21:57.747Z,10.17
2017-06-02T01:23:10.290Z,10.15
2017-06-02T01:24:21.947Z,10.21
2017-06-02T01:25:34.186Z,10.12
2017-06-02T01:26:47.006Z,10.09
2017-06-02T01:27:59.223Z,10.07
2017-06-02T01:29:11.469Z,10.07
2017-06-02T01:30:23.391Z,9.99
2017-06-02T01:31:35.911Z,10.02
2017-06-02T01:32:48.433Z,9.97
2017-06-02T01:34:00.661Z,9.99
2017-06-02T01:35:12.902Z,9.95
2017-06-02T01:36:24.846Z,9.99
2017-06-02T01:37:37.402Z,9.99
2017-06-02T01:38:49.637Z,9.94
2017-06-02T01:40:01.886Z,9.91
2017-06-02T01:41:14.136Z,9.92
2017-06-02T01:42:26.348Z,9.91
2017-06-02T01:43:37.971Z,9.9
2017-06-02T01:44:50.166Z,9.87
2017-06-02T01:46:02.399Z,9.88
2017-06-02T01:47:14.591Z,9.88
2017-06-02T01:48:27.139Z,9.81
2017-06-02T01:49:39.086Z,9.9
2017-06-02T01:50:51.653Z,9.82
2017-06-02T01:52:03.900Z,9.77
2017-06-02T01:53:16.441Z,9.82
2017-06-02T01:54:28.644Z,9.8
2017-06-02T01:55:41.137Z,9.77
2017-06-02T01:56:53.639Z,9.72
2017-06-02T01:58:06.183Z,9.74
2017-06-02T01:59:18.677Z,9.77
2017-06-02T02:00:31.195Z,9.74
2017-06-02T02:01:43.117Z,9.8
2017-06-02T02:02:55.316Z,9.74
2017-06-02T02:04:07.844Z,9.74
2017-06-02T02:05:19.760Z,9.74
2017-06-02T02:06:32.299Z,9.74
2017-06-02T02:07:44.821Z,9.72
2017-06-02T02:08:57.050Z,9.76
2017-06-02T02:10:09.610Z,9.77
2017-06-02T02:11:21.214Z,9.77
2017-06-02T02:12:33.176Z,9.8
2017-06-02T02:13:45.721Z,9.81
2017-06-02T02:14:58.251Z,9.77
2017-06-02T02:16:10.495Z,9.76
2017-06-02T02:17:22.706Z,9.72
2017-06-02T02:18:35.235Z,9.74
2017-06-02T02:19:47.748Z,9.76
2017-06-02T02:20:59.997Z,9.8
2017-06-02T02:22:11.942Z,9.74
2017-06-02T02:23:24.470Z,9.76
2017-06-02T02:24:36.714Z,9.72
2017-06-02T02:25:49.234Z,9.73
2017-06-02T02:27:01.148Z,9.74
2017-06-02T02:28:13.651Z,9.74
2017-06-02T02:29:26.173Z,9.73
2017-06-02T02:30:38.722Z,9.72
2017-06-02T02:31:51.265Z,9.67
2017-06-02T02:33:03.779Z,9.62
2017-06-02T02:34:15.703Z,9.69
2017-06-02T02:35:28.245Z,9.69
2017-06-02T02:36:40.773Z,9.56
2017-06-02T02:37:53.314Z,9.62
2017-06-02T02:39:05.845Z,9.64
2017-06-02T02:40:16.862Z,9.64
2017-06-02T02:41:29.403Z,9.59
2017-06-02T02:42:42.244Z,9.58
2017-06-02T02:43:54.466Z,9.56
2017-06-02T02:45:06.995Z,9.51
2017-06-02T02:46:19.532Z,9.49
2017-06-02T02:47:31.757Z,9.49
2017-06-02T02:48:44.285Z,9.47
2017-06-02T02:49:56.496Z,9.45
2017-06-02T02:51:09.021Z,9.49
2017-06-02T02:52:21.270Z,9.48
2017-06-02T02:53:33.483Z,9.45
2017-06-02T02:54:45.992Z,9.48
2017-06-02T02:55:58.216Z,9.49
2017-06-02T02:57:10.133Z,9.42
2017-06-02T02:58:22.395Z,9.37
2017-06-02T02:59:34.613Z,9.3
2017-06-02T03:00:47.135Z,9.37
2017-06-02T03:01:59.662Z,9.4
2017-06-02T03:03:11.303Z,9.47
2017-06-02T03:04:23.555Z,9.31
2017-06-02T03:05:36.054Z,9.39
2017-06-02T03:06:48.551Z,9.33
2017-06-02T03:08:00.814Z,9.31
2017-06-02T03:09:12.730Z,9.39
2017-06-02T03:10:25.240Z,9.37
2017-06-02T03:11:37.754Z,9.37
2017-06-02T03:12:50.267Z,9.34
2017-06-02T03:14:02.501Z,9.34
2017-06-02T03:15:15.259Z,9.37
2017-06-02T03:16:27.493Z,9.42
2017-06-02T03:17:40.037Z,9.36
2017-06-02T03:18:51.959Z,9.31
2017-06-02T03:20:04.506Z,9.36
2017-06-02T03:21:17.102Z,9.39
2017-06-02T03:22:29.047Z,9.31
2017-06-02T03:23:41.556Z,9.39
2017-06-02T03:24:54.060Z,9.36
2017-06-02T03:26:06.272Z,9.36
2017-06-02T03:27:18.523Z,9.42
2017-06-02T03:28:31.043Z,9.33
2017-06-02T03:29:43.593Z,9.36
2017-06-02T03:30:56.114Z,9.36
2017-06-02T03:32:08.339Z,9.31
2017-06-02T03:33:20.581Z,9.31
2017-06-02T03:34:32.523Z,9.36
2017-06-02T03:35:45.051Z,9.34
2017-06-02T03:36:57.569Z,9.47
2017-06-02T03:38:09.810Z,9.47
2017-06-02T03:39:22.039Z,9.48
2017-06-02T03:40:34.609Z,9.47
2017-06-02T03:41:46.845Z,9.52
2017-06-02T03:42:59.357Z,9.51
2017-06-02T03:44:11.598Z,9.49
2017-06-02T03:45:23.809Z,9.47
2017-06-02T03:46:35.733Z,9.52
2017-06-02T03:47:47.961Z,9.51
2017-06-02T03:48:59.895Z,9.47
2017-06-02T03:50:12.425Z,9.54
2017-06-02T03:51:24.966Z,9.63
2017-06-02T03:52:37.519Z,9.52
2017-06-02T03:53:49.754Z,9.58
2017-06-02T03:55:02.276Z,9.56
2017-06-02T03:56:14.529Z,9.58
2017-06-02T03:57:26.767Z,9.66
2017-06-02T03:58:39.292Z,9.76
2017-06-02T03:59:51.833Z,9.64
2017-06-02T04:01:04.366Z,9.72
2017-06-02T04:02:16.301Z,9.76
2017-06-02T04:03:28.822Z,9.77
2017-06-02T04:04:41.367Z,9.81
2017-06-02T04:05:52.700Z,9.76
2017-06-02T04:07:04.959Z,9.84
2017-06-02T04:08:17.508Z,9.85
2017-06-02T04:09:29.162Z,9.9
2017-06-02T04:10:41.708Z,9.92
2017-06-02T04:11:53.947Z,9.94
2017-06-02T04:13:06.172Z,10.02
2017-06-02T04:14:18.697Z,10
2017-06-02T04:15:31.218Z,9.97
2017-06-02T04:16:43.787Z,10.02
2017-06-02T04:17:56.335Z,10.09
2017-06-02T04:19:08.857Z,10.1
2017-06-02T04:20:21.371Z,10.12
2017-06-02T04:21:33.593Z,10.12
2017-06-02T04:22:45.790Z,10.18
2017-06-02T04:23:57.713Z,10.12
2017-06-02T04:25:10.256Z,10.24
2017-06-02T04:26:22.777Z,10.3
2017-06-02T04:27:35.008Z,10.31
2017-06-02T04:28:47.237Z,10.33
2017-06-02T04:29:59.782Z,10.27
2017-06-02T04:31:12.311Z,10.39
2017-06-02T04:32:24.559Z,10.38
2017-06-02T04:33:36.505Z,10.33
2017-06-02T04:34:49.023Z,10.45
2017-06-02T04:36:00.954Z,10.42
2017-06-02T04:37:12.883Z,10.57
2017-06-02T04:38:25.110Z,10.57
2017-06-02T04:39:37.349Z,10.62
2017-06-02T04:40:49.556Z,10.58
2017-06-02T04:42:01.478Z,10.68
2017-06-02T04:43:13.398Z,10.71
2017-06-02T04:44:25.358Z,10.75
2017-06-02T04:45:37.605Z,10.8
2017-06-02T04:46:50.154Z,10.83
2017-06-02T04:48:02.651Z,10.89
2017-06-02T04:49:14.591Z,10.95
2017-06-02T04:50:26.520Z,10.82
2017-06-02T04:51:38.746Z,11.02
2017-06-02T04:52:50.969Z,10.97
2017-06-02T04:54:03.478Z,11.08
2017-06-02T04:55:15.425Z,11.15
2017-06-02T04:56:27.392Z,11.15
2017-06-02T04:57:39.925Z,11.23
2017-06-02T04:58:52.461Z,11.34
2017-06-02T05:00:04.663Z,11.33
2017-06-02T05:01:16.907Z,11.51
2017-06-02T05:02:29.123Z,11.44
2017-06-02T05:03:41.672Z,11.53
2017-06-02T05:04:53.874Z,11.6
2017-06-02T05:06:06.418Z,11.62
2017-06-02T05:07:18.930Z,11.68
2017-06-02T05:08:30.234Z,11.78
2017-06-02T05:09:42.761Z,11.8
2017-06-02T05:10:55.304Z,11.85
2017-06-02T05:12:07.547Z,11.95
2017-06-02T05:13:19.459Z,12.02
2017-06-02T05:14:31.407Z,12.1
2017-06-02T05:15:43.953Z,12.08
2017-06-02T05:16:56.498Z,12.2
2017-06-02T05:18:08.744Z,12.23
2017-06-02T05:19:20.977Z,12.4
2017-06-02T05:20:32.611Z,12.37
2017-06-02T05:21:45.207Z,12.55
2017-06-02T05:22:57.738Z,12.68
2017-06-02T05:24:09.672Z,12.81
2017-06-02T05:25:21.884Z,13.03
2017-06-02T05:26:34.420Z,13.28
2017-06-02T05:27:46.911Z,13.58
2017-06-02T05:28:59.444Z,13.83
2017-06-02T05:30:11.688Z,14.05
2017-06-02T05:31:23.584Z,14.22
2017-06-02T05:32:35.808Z,14.43
2017-06-02T05:33:48.002Z,14.48
2017-06-02T05:35:00.240Z,14.74
2017-06-02T05:36:12.465Z,14.82
2017-06-02T05:37:24.678Z,14.92
2017-06-02T05:38:36.635Z,15.02
2017-06-02T05:39:49.179Z,15.08
2017-06-02T05:41:01.420Z,15.11
2017-06-02T05:42:13.963Z,15.1
2017-06-02T05:43:25.913Z,15.17
2017-06-02T05:44:38.138Z,15.17
2017-06-02T05:45:50.700Z,15.26
2017-06-02T05:47:02.603Z,15.29
2017-06-02T05:48:14.553Z,15.26
2017-06-02T05:49:26.471Z,15.39
2017-06-02T05:50:38.995Z,15.41
2017-06-02T05:51:51.541Z,15.43
2017-06-02T05:53:02.887Z,15.44
2017-06-02T05:54:14.530Z,15.5
2017-06-02T05:55:26.796Z,15.48
2017-06-02T05:56:39.350Z,15.51
2017-06-02T05:57:51.883Z,15.63
2017-06-02T05:59:03.856Z,15.67
2017-06-02T06:00:16.103Z,15.66
2017-06-02T06:01:28.380Z,15.62
2017-06-02T06:02:40.604Z,15.69
2017-06-02T06:03:53.153Z,15.69
2017-06-02T06:05:04.803Z,15.72
2017-06-02T06:06:16.442Z,15.83
2017-06-02T06:07:28.665Z,15.83
2017-06-02T06:08:41.209Z,15.9
2017-06-02T06:09:53.779Z,15.99
2017-06-02T06:11:06.326Z,15.96
2017-06-02T06:12:18.562Z,16.03
2017-06-02T06:13:31.114Z,16.03
2017-06-02T06:14:43.635Z,16.21
2017-06-02T06:15:56.159Z,16.31
2017-06-02T06:17:08.381Z,16.34
2017-06-02T06:18:20.915Z,16.55
2017-06-02T06:19:33.698Z,16.65
2017-06-02T06:20:46.244Z,16.91
2017-06-02T06:21:58.478Z,17.12
2017-06-02T06:23:10.724Z,17.44
2017-06-02T06:24:23.270Z,17.63
2017-06-02T06:25:35.491Z,17.75
2017-06-02T06:26:48.048Z,17.95
2017-06-02T06:28:00.587Z,18.13
2017-06-02T06:29:12.219Z,18.26
2017-06-02T06:30:24.475Z,18.43
2017-06-02T06:31:36.999Z,18.51
2017-06-02T06:32:49.578Z,18.63
2017-06-02T06:34:02.124Z,18.74
2017-06-02T06:35:14.070Z,18.98
2017-06-02T06:36:26.304Z,19.12
2017-06-02T06:37:38.824Z,19.37
2017-06-02T06:38:51.371Z,19.67
2017-06-02T06:40:03.305Z,20.21
2017-06-02T06:41:15.523Z,20.49
2017-06-02T06:42:27.768Z,21
2017-06-02T06:43:40.019Z,21.41
2017-06-02T06:44:52.583Z,21.91
2017-06-02T06:46:04.529Z,22.21
2017-06-02T06:47:17.067Z,22.59
2017-06-02T06:48:29.600Z,23.01
2017-06-02T06:49:42.168Z,23.37
2017-06-02T06:50:54.708Z,23.76
2017-06-02T06:52:06.660Z,24.14
2017-06-02T06:53:18.579Z,24.53
2017-06-02T06:54:31.118Z,24.86
2017-06-02T06:55:43.674Z,25.33
2017-06-02T06:56:55.921Z,25.66
2017-06-02T06:58:08.167Z,25.89
2017-06-02T06:59:20.127Z,26.24
2017-06-02T07:00:32.402Z,26.46
2017-06-02T07:01:44.947Z,26.68
2017-06-02T07:02:57.490Z,26.97
2017-06-02T07:04:10.043Z,27.25
2017-06-02T07:05:21.985Z,27.47
2017-06-02T07:06:34.214Z,27.78
2017-06-02T07:07:46.460Z,27.97
2017-06-02T07:08:58.418Z,28.09
2017-06-02T07:10:10.676Z,28.3
2017-06-02T07:11:23.235Z,28.53
2017-06-02T07:12:34.897Z,28.8
2017-06-02T07:13:47.465Z,28.87
2017-06-02T07:15:00.053Z,29.03
2017-06-02T07:16:12.007Z,29.21
2017-06-02T07:17:23.973Z,29.39
2017-06-02T07:18:36.543Z,29.62
2017-06-02T07:19:48.485Z,29.81
2017-06-02T07:21:01.035Z,29.86
2017-06-02T07:22:12.682Z,29.98
2017-06-02T07:23:24.631Z,30.02
2017-06-02T07:24:36.873Z,30.16
2017-06-02T07:25:49.423Z,30.27
2017-06-02T07:27:02.011Z,30.4
2017-06-02T07:28:14.286Z,30.61
2017-06-02T07:29:26.853Z,30.76
2017-06-02T07:30:39.131Z,30.89
2017-06-02T07:31:51.378Z,30.96
2017-06-02T07:33:03.639Z,30.91
2017-06-02T07:34:15.296Z,30.88
2017-06-02T07:35:27.879Z,30.89
2017-06-02T07:36:40.136Z,31.02
2017-06-02T07:37:52.703Z,31.18
2017-06-02T07:39:05.282Z,31.28
2017-06-02T07:40:17.213Z,31.33
2017-06-02T07:41:29.470Z,31.36
2017-06-02T07:42:42.068Z,31.59
2017-06-02T07:43:54.029Z,31.64
2017-06-02T07:45:06.583Z,31.77
2017-06-02T07:46:18.820Z,31.78
2017-06-02T07:47:31.089Z,31.92
2017-06-02T07:48:43.666Z,31.89
2017-06-02T07:49:56.221Z,31.95
2017-06-02T07:51:08.808Z,31.97
2017-06-02T07:52:21.358Z,31.89
2017-06-02T07:53:33.005Z,31.85
2017-06-02T07:54:45.288Z,31.7
2017-06-02T07:55:57.844Z,31.82
2017-06-02T07:57:10.109Z,31.86
2017-06-02T07:58:22.656Z,31.93
2017-06-02T07:59:34.959Z,31.98
2017-06-02T08:00:47.522Z,32.11
2017-06-02T08:01:59.754Z,32.07
2017-06-02T08:03:12.012Z,32.11
2017-06-02T08:04:24.561Z,31.95
2017-06-02T08:05:36.809Z,31.82
2017-06-02T08:06:49.036Z,31.81
2017-06-02T08:08:01.294Z,31.81
2017-06-02T08:09:13.565Z,31.78
2017-06-02T08:10:26.143Z,31.63
2017-06-02T08:11:38.693Z,31.51
2017-06-02T08:12:51.252Z,31.6
2017-06-02T08:14:03.534Z,31.59
2017-06-02T08:15:15.477Z,31.6
2017-06-02T08:16:28.044Z,31.57
2017-06-02T08:17:40.314Z,31.7
2017-06-02T08:18:52.586Z,31.82
2017-06-02T08:20:04.835Z,31.81
2017-06-02T08:21:16.785Z,31.92
2017-06-02T08:22:28.769Z,32.09
2017-06-02T08:23:41.341Z,32.19
2017-06-02T08:24:53.891Z,32.24
2017-06-02T08:26:06.465Z,32.35
2017-06-02T08:27:19.020Z,32.49
2017-06-02T08:28:31.585Z,32.46
2017-06-02T08:29:44.132Z,32.46
2017-06-02T08:30:56.377Z,32.49
2017-06-02T08:32:08.625Z,32.44
2017-06-02T08:33:21.139Z,32.42
2017-06-02T08:34:33.414Z,32.44
2017-06-02T08:35:45.675Z,32.51
2017-06-02T08:36:58.228Z,32.57
2017-06-02T08:38:10.245Z,32.68
2017-06-02T08:39:22.770Z,32.79
2017-06-02T08:40:35.345Z,32.94
2017-06-02T08:41:47.918Z,33.05
2017-06-02T08:43:00.182Z,33.09
2017-06-02T08:44:11.833Z,33.15
2017-06-02T08:45:24.419Z,33.23
2017-06-02T08:46:35.792Z,33.23
2017-06-02T08:47:48.362Z,33.26
2017-06-02T08:49:00.919Z,33.16
2017-06-02T08:50:13.208Z,33.05
2017-06-02T08:51:25.760Z,32.86
2017-06-02T08:52:38.328Z,32.83
2017-06-02T08:53:50.888Z,32.67
2017-06-02T08:55:03.460Z,32.48
2017-06-02T08:56:15.406Z,32.54
2017-06-02T08:57:27.660Z,32.48
2017-06-02T08:58:40.222Z,32.42
2017-06-02T08:59:52.796Z,32.41
2017-06-02T09:01:05.339Z,32.44
2017-06-02T09:02:17.313Z,32.51
2017-06-02T09:03:29.559Z,32.54
2017-06-02T09:04:42.105Z,32.63
2017-06-02T09:05:54.377Z,32.53
2017-06-02T09:07:06.047Z,32.64
2017-06-02T09:08:17.697Z,32.46
2017-06-02T09:09:29.947Z,32.42
2017-06-02T09:10:42.519Z,32.45
2017-06-02T09:11:55.085Z,32.42
2017-06-02T09:13:07.323Z,32.41
2017-06-02T09:14:19.593Z,32.38
2017-06-02T09:15:30.965Z,32.39
2017-06-02T09:16:43.494Z,32.42
2017-06-02T09:17:56.057Z,32.49
2017-06-02T09:19:08.314Z,32.48
2017-06-02T09:20:20.276Z,32.45
2017-06-02T09:21:32.523Z,32.15
2017-06-02T09:22:45.093Z,32.22
2017-06-02T09:23:57.340Z,31.9
2017-06-02T09:25:09.368Z,31.72
2017-06-02T09:26:21.631Z,31.69
2017-06-02T09:27:33.603Z,31.74
2017-06-02T09:28:46.155Z,31.93
2017-06-02T09:29:58.099Z,31.97
2017-06-02T09:31:10.044Z,32.04
2017-06-02T09:32:22.586Z,32.04
2017-06-02T09:33:34.858Z,32.09
2017-06-02T09:34:47.432Z,32.11
2017-06-02T09:36:00.006Z,32.22
2017-06-02T09:37:12.274Z,32.29
2017-06-02T09:38:24.250Z,32.35
2017-06-02T09:39:36.216Z,32.42
2017-06-02T09:40:48.758Z,32.39
2017-06-02T09:42:01.336Z,32.27
2017-06-02T09:43:13.605Z,32.29
2017-06-02T09:44:25.853Z,32.34
2017-06-02T09:45:38.397Z,32.44
2017-06-02T09:46:50.941Z,32.49
2017-06-02T09:48:02.890Z,32.49
2017-06-02T09:49:14.555Z,32.56
2017-06-02T09:50:27.132Z,32.46
2017-06-02T09:51:39.417Z,32.56
2017-06-02T09:52:51.971Z,32.73
2017-06-02T09:54:04.522Z,32.61
2017-06-02T09:55:16.792Z,32.54
2017-06-02T09:56:29.353Z,32.54
2017-06-02T09:57:41.613Z,32.51
2017-06-02T09:58:54.221Z,32.54
2017-06-02T10:00:06.479Z,32.64
2017-06-02T10:01:18.717Z,32.63
2017-06-02T10:02:30.964Z,32.49
2017-06-02T10:03:43.505Z,32.46
2017-06-02T10:04:56.056Z,32.45
2017-06-02T10:06:08.036Z,32.37
2017-06-02T10:07:20.301Z,32.27
2017-06-02T10:08:32.564Z,32.3
2017-06-02T10:09:45.114Z,32.34
2017-06-02T10:10:57.656Z,32.46
2017-06-02T10:12:09.899Z,32.53
2017-06-02T10:13:22.452Z,32.57
2017-06-02T10:14:34.774Z,32.64
2017-06-02T10:15:47.348Z,32.45
2017-06-02T10:16:59.943Z,32.63
2017-06-02T10:18:12.227Z,32.73
2017-06-02T10:19:24.506Z,32.97
2017-06-02T10:20:37.073Z,33.13
2017-06-02T10:21:49.624Z,33.32
2017-06-02T10:23:02.249Z,33.42
2017-06-02T10:24:14.807Z,33.61
2017-06-02T10:25:27.056Z,33.73
2017-06-02T10:26:39.335Z,33.91
2017-06-02T10:27:51.899Z,34.19
2017-06-02T10:29:04.449Z,34.1
2017-06-02T10:30:16.719Z,34.46
2017-06-02T10:31:28.966Z,34.6
2017-06-02T10:32:41.490Z,34.73
2017-06-02T10:33:54.082Z,34.89
2017-06-02T10:35:06.633Z,35.05
2017-06-02T10:36:18.894Z,35.15
2017-06-02T10:37:31.425Z,35.34
2017-06-02T10:38:43.962Z,35.42
2017-06-02T10:39:56.529Z,35.47
2017-06-02T10:41:08.783Z,35.49
2017-06-02T10:42:21.346Z,35.38
2017-06-02T10:43:33.900Z,35.38
2017-06-02T10:44:46.173Z,35.32
2017-06-02T10:45:58.442Z,35.41
2017-06-02T10:47:10.404Z,35.45
2017-06-02T10:48:22.979Z,35.63
2017-06-02T10:49:35.534Z,35.68
2017-06-02T10:50:48.121Z,35.64
2017-06-02T10:52:00.688Z,35.53
2017-06-02T10:53:13.259Z,35.71
2017-06-02T10:54:25.833Z,35.61
2017-06-02T10:55:38.383Z,35.71
2017-06-02T10:56:50.929Z,35.72
2017-06-02T10:58:03.151Z,35.71
2017-06-02T10:59:14.838Z,35.75
2017-06-02T11:00:27.121Z,35.75
2017-06-02T11:01:39.406Z,35.88
2017-06-02T11:02:51.961Z,35.81
2017-06-02T11:04:04.230Z,35.93
2017-06-02T11:05:16.476Z,35.93
2017-06-02T11:06:29.026Z,35.84
2017-06-02T11:07:41.600Z,35.82
2017-06-02T11:08:53.856Z,35.93
2017-06-02T11:10:05.827Z,36.03
2017-06-02T11:11:17.505Z,36.2
2017-06-02T11:12:30.069Z,36.36
2017-06-02T11:13:42.643Z,36.47
2017-06-02T11:14:55.214Z,36.75
2017-06-02T11:16:07.488Z,37
2017-06-02T11:17:19.756Z,36.91
2017-06-02T11:18:32.023Z,36.96
2017-06-02T11:19:44.653Z,36.82
2017-06-02T11:20:56.898Z,36.85
2017-06-02T11:22:09.173Z,36.63
2017-06-02T11:23:21.743Z,36.73
2017-06-02T11:24:33.991Z,36.22
2017-06-02T11:25:46.550Z,36.6
2017-06-02T11:26:59.152Z,36.66
2017-06-02T11:28:11.726Z,36.51
2017-06-02T11:29:23.696Z,36.24
2017-06-02T11:30:35.643Z,36.35
2017-06-02T11:31:48.215Z,36.5
2017-06-02T11:33:00.809Z,36.45
2017-06-02T11:34:13.099Z,36.55
2017-06-02T11:35:25.044Z,36.7
2017-06-02T11:36:37.020Z,36.67
2017-06-02T11:37:49.271Z,36.89
2017-06-02T11:39:01.855Z,37.04
2017-06-02T11:40:14.400Z,36.69
2017-06-02T11:41:26.987Z,36.55
2017-06-02T11:42:39.274Z,36.31
2017-06-02T11:43:51.825Z,36.26
2017-06-02T11:45:04.369Z,36.18
2017-06-02T11:46:16.933Z,36.44
2017-06-02T11:47:29.486Z,36.51
2017-06-02T11:48:42.050Z,36.25
2017-06-02T11:49:54.326Z,36.26
2017-06-02T11:51:06.891Z,36.33
2017-06-02T11:52:19.444Z,36.53
2017-06-02T11:53:31.729Z,36.55
2017-06-02T11:54:44.004Z,36.66
2017-06-02T11:55:56.551Z,36.81
2017-06-02T11:57:09.129Z,36.84
2017-06-02T11:58:21.700Z,37.04
2017-06-02T11:59:33.963Z,37.1
2017-06-02T12:00:46.509Z,37.16
2017-06-02T12:01:58.477Z,37.37
2017-06-02T12:03:11.051Z,37.37
2017-06-02T12:04:23.002Z,37.57
2017-06-02T12:05:35.274Z,37.18
2017-06-02T12:06:47.850Z,37.44
2017-06-02T12:08:00.410Z,37.58
2017-06-02T12:09:12.661Z,37.72
2017-06-02T12:10:24.930Z,37.67
2017-06-02T12:11:37.479Z,37.58
2017-06-02T12:12:49.740Z,37.47
2017-06-02T12:14:02.315Z,37.45
2017-06-02T12:15:14.882Z,37.44
2017-06-02T12:16:27.460Z,37.19
2017-06-02T12:17:40.301Z,37.38
2017-06-02T12:18:52.868Z,37.23
2017-06-02T12:20:04.823Z,37.53
2017-06-02T12:21:16.450Z,37.58
2017-06-02T12:22:28.992Z,37.56
2017-06-02T12:23:41.310Z,37.63
2017-06-02T12:24:53.852Z,37.57
2017-06-02T12:26:06.095Z,37.38
2017-06-02T12:27:18.649Z,37.41
2017-06-02T12:28:31.199Z,37.43
2017-06-02T12:29:43.741Z,37.44
2017-06-02T12:30:55.978Z,37.34
2017-06-02T12:32:08.236Z,37.34
2017-06-02T12:33:20.781Z,37.34
2017-06-02T12:34:33.044Z,37.47
2017-06-02T12:35:45.615Z,37.56
2017-06-02T12:36:58.166Z,37.63
2017-06-02T12:38:10.131Z,37.63
2017-06-02T12:39:22.685Z,37.57
2017-06-02T12:40:34.949Z,37.47
2017-06-02T12:41:47.520Z,37.54
2017-06-02T12:43:00.090Z,37.58
2017-06-02T12:44:12.670Z,37.5
2017-06-02T12:45:24.912Z,37.5
2017-06-02T12:46:37.153Z,37.56
2017-06-02T12:47:49.721Z,37.48
2017-06-02T12:49:01.979Z,36.7
2017-06-02T12:50:14.249Z,36.67
2017-06-02T12:51:26.816Z,36.51
2017-06-02T12:52:39.082Z,36.59
2017-06-02T12:53:51.661Z,36.69
2017-06-02T12:55:04.221Z,36.97
2017-06-02T12:56:16.496Z,36.92
2017-06-02T12:57:29.073Z,37.06
2017-06-02T12:58:40.420Z,37.21
2017-06-02T12:59:52.691Z,37.33
2017-06-02T13:01:05.263Z,37.58
2017-06-02T13:02:17.522Z,37.68
2017-06-02T13:03:29.471Z,37.76
2017-06-02T13:04:42.026Z,37.8
2017-06-02T13:05:54.613Z,37.94
2017-06-02T13:07:07.192Z,37.91
2017-06-02T13:08:19.781Z,38
2017-06-02T13:09:31.755Z,37.98
2017-06-02T13:10:43.992Z,38
2017-06-02T13:11:56.246Z,38.05
2017-06-02T13:13:08.518Z,38.02
2017-06-02T13:14:20.756Z,37.97
2017-06-02T13:15:33.327Z,38.02
2017-06-02T13:16:45.274Z,38.13
2017-06-02T13:17:57.581Z,38.2
2017-06-02T13:19:09.542Z,38.1
2017-06-02T13:20:21.778Z,38.19
2017-06-02T13:21:33.713Z,38.23
2017-06-02T13:22:45.663Z,38.31
2017-06-02T13:23:58.256Z,38.27
2017-06-02T13:25:10.219Z,38.2
2017-06-02T13:26:22.802Z,38.2
2017-06-02T13:27:35.048Z,38.16
2017-06-02T13:28:47.616Z,38.19
2017-06-02T13:29:59.853Z,38.34
2017-06-02T13:31:11.832Z,38.38
2017-06-02T13:32:23.757Z,38.44
2017-06-02T13:33:36.317Z,38.56
2017-06-02T13:34:48.871Z,38.62
2017-06-02T13:36:00.832Z,38.73
2017-06-02T13:37:13.068Z,38.65
2017-06-02T13:38:25.349Z,38.7
2017-06-02T13:39:37.932Z,38.66
2017-06-02T13:40:50.192Z,38.46
2017-06-02T13:42:02.770Z,38.38
2017-06-02T13:43:15.060Z,38.25
2017-06-02T13:44:27.307Z,38.22
2017-06-02T13:45:39.550Z,38.1
2017-06-02T13:46:52.097Z,37.88
2017-06-02T13:48:04.345Z,37.73
2017-06-02T13:49:16.916Z,37.64
2017-06-02T13:50:29.184Z,37.47
2017-06-02T13:51:41.460Z,37.45
2017-06-02T13:52:54.010Z,37.23
2017-06-02T13:54:06.261Z,37.22
2017-06-02T13:55:18.500Z,37.16
2017-06-02T13:56:30.767Z,37.07
2017-06-02T13:57:43.320Z,36.97
2017-06-02T13:58:55.906Z,37.09
2017-06-02T14:00:08.487Z,37.06
2017-06-02T14:01:21.059Z,37.06
2017-06-02T14:02:33.619Z,37.04
2017-06-02T14:03:45.889Z,36.92
2017-06-02T14:04:58.471Z,36.84
2017-06-02T14:06:10.780Z,36.89
2017-06-02T14:07:23.355Z,36.89
2017-06-02T14:08:35.305Z,36.82
2017-06-02T14:09:47.571Z,36.36
2017-06-02T14:10:59.525Z,36.45
2017-06-02T14:12:12.097Z,36.17
2017-06-02T14:13:24.668Z,36.16
2017-06-02T14:14:36.635Z,35.84
2017-06-02T14:15:48.898Z,35.66
2017-06-02T14:17:01.469Z,35.56
2017-06-02T14:18:13.725Z,35.6
2017-06-02T14:19:25.991Z,35.63
2017-06-02T14:20:38.582Z,35.59
2017-06-02T14:21:50.852Z,35.74
2017-06-02T14:23:03.431Z,35.86
2017-06-02T14:24:15.370Z,35.74
2017-06-02T14:25:27.926Z,35.87
2017-06-02T14:26:40.486Z,35.94
2017-06-02T14:27:53.036Z,35.93
2017-06-02T14:29:05.606Z,35.79
2017-06-02T14:30:17.879Z,35.78
2017-06-02T14:31:30.152Z,35.71
2017-06-02T14:32:42.423Z,35.63
2017-06-02T14:33:54.349Z,35.56
2017-06-02T14:35:06.308Z,35.53
2017-06-02T14:36:18.553Z,35.53
2017-06-02T14:37:31.125Z,35.49
2017-06-02T14:38:43.974Z,35.32
2017-06-02T14:39:56.241Z,35.41
2017-06-02T14:41:08.500Z,35.23
2017-06-02T14:42:20.759Z,35
2017-06-02T14:43:32.733Z,34.81
2017-06-02T14:44:45.003Z,34.62
2017-06-02T14:45:57.529Z,34.5
2017-06-02T14:47:09.767Z,34.28
2017-06-02T14:48:22.342Z,34.09
2017-06-02T14:49:34.892Z,33.81
2017-06-02T14:50:47.458Z,33.31
2017-06-02T14:51:59.412Z,32.64
2017-06-02T14:53:11.371Z,32.42
2017-06-02T14:54:23.325Z,32.24
2017-06-02T14:55:35.603Z,31.74
2017-06-02T14:56:48.170Z,31.35
2017-06-02T14:58:00.734Z,30.98
2017-06-02T14:59:12.958Z,30.76
2017-06-02T15:00:25.226Z,30.55
2017-06-02T15:01:37.752Z,30.16
2017-06-02T15:02:50.022Z,29.8
2017-06-02T15:04:02.565Z,29.64
2017-06-02T15:05:15.134Z,29.47
2017-06-02T15:06:27.680Z,29.22
2017-06-02T15:07:39.622Z,29.06
2017-06-02T15:08:52.169Z,28.9
2017-06-02T15:10:04.425Z,28.74
2017-06-02T15:11:16.996Z,28.52
2017-06-02T15:12:29.565Z,28.33
2017-06-02T15:13:41.513Z,28.18
2017-06-02T15:14:53.779Z,28.03
2017-06-02T15:16:06.343Z,27.98
2017-06-02T15:17:18.915Z,27.63
2017-06-02T15:18:31.194Z,27.67
2017-06-02T15:19:43.757Z,27.45
2017-06-02T15:20:55.978Z,27.4
2017-06-02T15:22:08.526Z,27.3
2017-06-02T15:23:21.045Z,27.26
2017-06-02T15:24:33.602Z,27.16
2017-06-02T15:25:45.861Z,26.93
2017-06-02T15:26:58.421Z,26.88
2017-06-02T15:28:10.963Z,26.7
2017-06-02T15:29:23.210Z,26.64
2017-06-02T15:30:35.770Z,26.61
2017-06-02T15:31:48.052Z,26.55
2017-06-02T15:33:01.429Z,26.51
2017-06-02T15:34:13.666Z,26.51
2017-06-02T15:35:25.903Z,26.48
2017-06-02T15:36:38.453Z,26.37
2017-06-02T15:37:50.982Z,26.33
2017-06-02T15:39:03.529Z,26.3